Time;durP1;ratioP1;P1;durP2;ratioP2;P2;SDS_P1;SDS_P2;PMS_P1;PMS_P2;Temp;Humidity;BMP_temperature;BMP_pressure;BME280_temperature;BME280_humidity;BME280_pressure;Samples;Min_cycle;Max_cycle;Signal;HPM_P1;HPM_P2
2022/07/28 00:00:47;;;;;;;2.73;1.13;;;13.20;78.00;;;;;;5032588;28;20481;-56
2022/07/28 00:03:16;;;;;;;3.23;1.20;;;13.10;78.00;;;;;;5032409;28;20453;-57
2022/07/28 00:05:43;;;;;;;4.40;1.30;;;13.00;78.40;;;;;;5031125;28;21042;-55
2022/07/28 00:08:11;;;;;;;2.10;1.10;;;13.00;79.00;;;;;;5032606;28;20509;-57
2022/07/28 00:10:39;;;;;;;2.77;1.30;;;13.00;79.70;;;;;;5028310;28;20454;-57
2022/07/28 00:13:06;;;;;;;3.60;1.47;;;13.00;80.10;;;;;;5013389;28;20496;-55
2022/07/28 00:15:33;;;;;;;5.20;1.60;;;12.90;80.40;;;;;;5014907;28;20573;-56
2022/07/28 00:18:00;;;;;;;2.90;1.30;;;12.90;80.80;;;;;;5034270;28;20548;-56
2022/07/28 00:20:29;;;;;;;4.63;1.60;;;12.90;81.00;;;;;;5023470;28;20538;-56
2022/07/28 00:22:57;;;;;;;3.43;1.20;;;12.90;81.10;;;;;;5026444;28;20453;-56
2022/07/28 00:25:24;;;;;;;4.33;1.60;;;12.90;81.30;;;;;;5033879;28;20548;-57
2022/07/28 00:27:52;;;;;;;5.33;2.20;;;12.90;81.50;;;;;;5036487;28;20452;-55
2022/07/28 00:30:19;;;;;;;3.40;1.50;;;12.90;81.50;;;;;;5018999;28;20553;-57
2022/07/28 00:32:46;;;;;;;4.57;1.63;;;12.90;81.80;;;;;;5018007;28;20872;-55
2022/07/28 00:35:13;;;;;;;4.37;2.07;;;12.90;82.10;;;;;;5018875;28;20545;-56
2022/07/28 00:37:42;;;;;;;3.50;1.80;;;12.80;82.40;;;;;;5017299;28;20476;-56
2022/07/28 00:40:10;;;;;;;3.90;1.67;;;12.80;82.90;;;;;;5016777;28;20477;-55
2022/07/28 00:42:38;;;;;;;1.90;1.60;;;12.70;83.50;;;;;;5016665;28;20541;-55
2022/07/28 00:45:07;;;;;;;2.03;1.83;;;12.60;84.10;;;;;;5016564;28;20916;-56
2022/07/28 00:47:34;;;;;;;3.07;2.10;;;12.60;84.90;;;;;;5016870;28;20452;-55
2022/07/28 00:50:01;;;;;;;3.67;1.83;;;12.50;85.50;;;;;;5033396;28;20536;-55
2022/07/28 00:52:29;;;;;;;3.17;1.73;;;12.50;86.10;;;;;;5036338;28;20531;-56
2022/07/28 00:54:58;;;;;;;2.67;1.90;;;12.40;86.60;;;;;;5034531;28;20997;-55
2022/07/28 00:57:26;;;;;;;4.13;2.10;;;12.40;86.80;;;;;;5035884;28;20841;-54
2022/07/28 00:59:53;;;;;;;4.93;2.80;;;12.40;87.20;;;;;;5036713;28;20534;-54
2022/07/28 01:02:20;;;;;;;4.40;2.10;;;12.40;87.50;;;;;;5035565;28;20548;-55
2022/07/28 01:04:48;;;;;;;6.03;2.20;;;12.30;87.80;;;;;;5034407;28;20524;-55
2022/07/28 01:07:31;;;;;;;5.40;2.73;;;12.30;88.10;;;;;;5035679;28;20464;-55
2022/07/28 01:10:06;;;;;;;4.47;2.33;;;12.30;88.50;;;;;;5036179;28;20491;-53
2022/07/28 01:12:45;;;;;;;3.17;1.73;;;12.30;88.90;;;;;;4996676;28;20986;-53
2022/07/28 01:15:23;;;;;;;5.23;1.80;;;12.30;89.20;;;;;;4998035;28;21057;-55
2022/07/28 01:17:59;;;;;;;7.17;2.20;;;12.30;89.40;;;;;;5016506;28;20880;-54
2022/07/28 01:20:39;;;;;;;4.40;2.07;;;12.30;89.30;;;;;;5031235;28;20473;-55
2022/07/28 01:23:35;;;;;;;3.83;2.20;;;12.30;89.40;;;;;;4996497;28;20525;-53
2022/07/28 01:26:16;;;;;;;3.07;1.70;;;12.30;89.40;;;;;;5004692;28;21064;-54
2022/07/28 01:28:59;;;;;;;3.63;2.20;;;12.30;89.30;;;;;;5016352;28;20438;-54
2022/07/28 01:31:34;;;;;;;4.07;2.27;;;12.30;89.40;;;;;;5015908;28;20565;-56
2022/07/28 01:34:08;;;;;;;4.70;2.50;;;12.30;89.80;;;;;;5030036;28;20524;-55
2022/07/28 01:36:41;;;;;;;5.47;2.10;;;12.20;90.00;;;;;;5015192;28;20576;-56
2022/07/28 01:39:10;;;;;;;2.70;2.00;;;12.20;90.00;;;;;;5016005;28;20485;-55
2022/07/28 01:41:39;;;;;;;6.80;2.17;;;12.20;90.10;;;;;;5016320;28;20530;-57
2022/07/28 01:44:10;;;;;;;5.00;2.70;;;12.20;90.20;;;;;;5015990;28;20554;-55
2022/07/28 01:46:40;;;;;;;2.83;1.30;;;12.20;90.30;;;;;;5022818;28;20505;-57
2022/07/28 01:49:09;;;;;;;2.90;2.13;;;12.10;90.40;;;;;;5033855;28;20543;-55
2022/07/28 01:51:38;;;;;;;3.27;1.70;;;12.10;90.50;;;;;;5035205;28;20991;-55
2022/07/28 01:54:08;;;;;;;5.03;2.33;;;12.00;90.60;;;;;;5037255;28;20455;-51
2022/07/28 01:56:37;;;;;;;5.43;2.07;;;11.90;90.90;;;;;;5033751;28;20491;-55
2022/07/28 01:59:08;;;;;;;3.90;2.27;;;11.90;91.10;;;;;;5035524;28;20528;-54
2022/07/28 02:01:37;;;;;;;3.77;2.30;;;11.80;91.50;;;;;;5024408;28;20469;-53
2022/07/28 02:04:08;;;;;;;3.20;2.00;;;11.80;91.70;;;;;;5016986;28;20456;-55
2022/07/28 02:06:37;;;;;;;3.93;2.33;;;11.80;91.80;;;;;;5015666;28;20469;-55
2022/07/28 02:09:06;;;;;;;2.80;2.10;;;11.80;92.00;;;;;;5015610;28;20536;-53
2022/07/28 02:11:41;;;;;;;2.83;2.50;;;11.70;92.20;;;;;;5015316;28;20474;-53
2022/07/28 02:14:10;;;;;;;6.10;2.03;;;11.70;92.50;;;;;;5015551;28;20461;-56
2022/07/28 02:16:41;;;;;;;3.30;1.77;;;11.60;92.80;;;;;;5018534;28;20871;-54
2022/07/28 02:19:13;;;;;;;3.50;2.20;;;11.50;92.90;;;;;;5033160;28;20437;-53
2022/07/28 02:21:41;;;;;;;2.47;1.87;;;11.50;93.10;;;;;;5024838;28;20958;-53
2022/07/28 02:24:10;;;;;;;7.73;2.60;;;11.50;93.40;;;;;;5015279;28;20450;-53
2022/07/28 02:26:42;;;;;;;7.60;2.40;;;11.40;93.60;;;;;;5027861;28;20552;-53
2022/07/28 02:29:12;;;;;;;2.23;1.50;;;11.40;93.80;;;;;;5025624;28;20537;-54
2022/07/28 02:31:45;;;;;;;5.90;2.00;;;11.40;93.90;;;;;;5015976;28;20465;-52
2022/07/28 02:34:16;;;;;;;2.43;1.97;;;11.40;94.00;;;;;;5015329;28;20508;-53
2022/07/28 02:36:47;;;;;;;2.77;1.87;;;11.40;94.20;;;;;;5015710;28;20568;-53
2022/07/28 02:39:20;;;;;;;2.50;1.70;;;11.40;94.30;;;;;;5014871;28;20434;-53
2022/07/28 02:41:53;;;;;;;5.77;1.97;;;11.40;94.50;;;;;;5015695;28;20529;-53
2022/07/28 02:44:29;;;;;;;3.00;2.03;;;11.40;94.60;;;;;;5032922;28;20473;-54
2022/07/28 02:46:58;;;;;;;3.87;2.03;;;11.30;94.60;;;;;;5031742;28;20483;-54
2022/07/28 02:49:32;;;;;;;4.90;2.10;;;11.30;94.70;;;;;;5013295;28;20461;-53
2022/07/28 02:52:01;;;;;;;2.13;1.90;;;11.30;94.90;;;;;;5014167;28;20453;-55
2022/07/28 02:54:31;;;;;;;4.20;1.93;;;11.20;95.10;;;;;;5014458;28;20515;-53
2022/07/28 02:57:00;;;;;;;3.63;1.83;;;11.20;95.20;;;;;;5021617;28;20513;-54
2022/07/28 02:59:28;;;;;;;4.10;2.13;;;11.20;95.50;;;;;;5033737;28;20477;-55
2022/07/28 03:01:56;;;;;;;5.90;2.23;;;11.30;95.60;;;;;;5033412;28;20532;-54
2022/07/28 03:07:11;;;;;;;2.73;1.90;;;11.20;95.90;;;;;;5031738;28;20475;-53
2022/07/28 03:09:40;;;;;;;2.97;2.10;;;11.20;96.40;;;;;;5034153;28;20527;-53
2022/07/28 03:12:08;;;;;;;3.10;2.20;;;11.20;96.70;;;;;;5016138;28;20462;-54
2022/07/28 03:14:42;;;;;;;3.00;2.20;;;11.20;96.90;;;;;;5014071;28;20985;-50
2022/07/28 03:17:10;;;;;;;6.43;2.60;;;11.20;97.10;;;;;;5029778;28;21004;-54
2022/07/28 03:19:38;;;;;;;3.00;2.03;;;11.20;97.30;;;;;;5021414;28;20979;-54
2022/07/28 03:22:06;;;;;;;3.30;2.00;;;11.20;97.40;;;;;;5033862;28;20483;-56
2022/07/28 03:24:37;;;;;;;5.10;2.83;;;11.20;97.60;;;;;;5019017;28;20477;-56
2022/07/28 03:27:11;;;;;;;3.07;2.60;;;11.20;97.80;;;;;;5033192;28;20489;-54
2022/07/28 03:29:40;;;;;;;2.57;2.00;;;11.20;97.90;;;;;;5033614;28;20496;-54
2022/07/28 03:32:08;;;;;;;4.10;2.17;;;11.20;98.00;;;;;;5031707;28;20441;-54
2022/07/28 03:34:36;;;;;;;3.53;2.20;;;11.20;98.20;;;;;;5035324;28;20453;-54
2022/07/28 03:37:08;;;;;;;2.60;1.90;;;11.30;98.20;;;;;;5032838;28;20508;-54
2022/07/28 03:39:39;;;;;;;6.20;2.20;;;11.30;98.20;;;;;;5033019;28;20437;-54
2022/07/28 03:42:08;;;;;;;3.90;1.90;;;11.30;98.30;;;;;;5034171;28;20442;-54
2022/07/28 03:44:35;;;;;;;9.50;2.60;;;11.30;98.40;;;;;;5032464;28;20449;-55
2022/07/28 03:47:02;;;;;;;10.40;3.10;;;11.40;98.40;;;;;;5040000;22;20572;-58
2022/07/28 03:49:29;;;;;;;2.40;2.20;;;11.40;98.40;;;;;;5013185;28;20508;-58
2022/07/28 03:51:57;;;;;;;2.93;2.13;;;11.40;98.40;;;;;;5012909;28;21000;-58
2022/07/28 03:54:25;;;;;;;6.23;2.57;;;11.50;98.40;;;;;;5013625;28;20453;-58
2022/07/28 03:56:52;;;;;;;3.63;2.17;;;11.50;98.30;;;;;;5013245;28;20496;-58
2022/07/28 03:59:20;;;;;;;2.77;2.03;;;11.60;98.30;;;;;;5012765;28;20508;-58
2022/07/28 04:01:47;;;;;;;2.83;2.00;;;11.70;98.20;;;;;;5013814;28;20458;-59
2022/07/28 04:04:14;;;;;;;3.20;2.17;;;11.80;98.10;;;;;;5014043;28;20541;-58
2022/07/28 04:10:04;;;;;;;4.63;2.40;;;11.90;97.60;;;;;;5112431;27;20616;-58
2022/07/28 04:12:32;;;;;;;3.37;1.77;;;12.00;97.70;;;;;;5112069;28;20452;-58
2022/07/28 04:14:59;;;;;;;2.97;1.90;;;12.10;97.70;;;;;;5112384;28;20515;-60
2022/07/28 04:17:26;;;;;;;3.87;2.30;;;12.30;98.00;;;;;;5092050;28;20476;-58
2022/07/28 04:19:53;;;;;;;2.50;2.13;;;12.60;98.20;;;;;;5095458;28;20442;-59
2022/07/28 04:22:20;;;;;;;5.90;1.97;;;12.90;97.40;;;;;;5101618;28;20486;-58
2022/07/28 04:24:48;;;;;;;2.27;1.90;;;13.10;96.70;;;;;;5097687;28;20511;-59
2022/07/28 04:27:16;;;;;;;4.00;2.07;;;13.20;96.30;;;;;;5093142;28;20549;-59
2022/07/28 04:29:43;;;;;;;6.47;2.27;;;13.40;96.10;;;;;;5093789;28;20480;-57
2022/07/28 04:32:10;;;;;;;4.43;2.23;;;13.50;95.90;;;;;;5100475;28;20474;-58
2022/07/28 04:34:38;;;;;;;7.33;1.93;;;13.80;95.70;;;;;;5105384;28;20502;-58
2022/07/28 04:37:05;;;;;;;2.33;1.40;;;14.30;94.70;;;;;;5103509;28;20497;-58
2022/07/28 04:39:32;;;;;;;2.60;1.97;;;14.60;93.60;;;;;;5107019;28;20433;-58
2022/07/28 04:41:59;;;;;;;5.57;2.17;;;14.60;92.60;;;;;;5118280;28;20533;-58
2022/07/28 04:44:28;;;;;;;5.50;2.10;;;14.60;92.30;;;;;;5105678;28;20553;-58
2022/07/28 04:46:55;;;;;;;6.27;1.97;;;14.40;92.30;;;;;;5075769;28;20538;-58
2022/07/28 04:49:22;;;;;;;7.50;2.60;;;14.40;92.30;;;;;;5091303;28;20521;-59
2022/07/28 04:51:51;;;;;;;3.03;2.10;;;14.30;92.30;;;;;;5090698;28;20478;-59
2022/07/28 04:54:19;;;;;;;7.27;2.30;;;14.30;92.20;;;;;;5095617;28;20453;-59
2022/07/28 04:56:46;;;;;;;5.10;2.53;;;14.30;91.90;;;;;;5090037;28;20553;-59
2022/07/28 04:59:14;;;;;;;5.27;2.73;;;14.30;91.60;;;;;;5090144;28;20443;-61
2022/07/28 05:01:43;;;;;;;6.27;2.77;;;14.40;91.30;;;;;;5090761;28;20447;-56
2022/07/28 05:04:10;;;;;;;4.93;2.50;;;14.40;91.00;;;;;;5094241;28;20474;-59
2022/07/28 05:06:37;;;;;;;3.80;2.33;;;14.50;90.80;;;;;;5100651;28;20494;-59
2022/07/28 05:09:04;;;;;;;7.20;2.70;;;14.60;90.40;;;;;;5089502;28;20933;-59
2022/07/28 05:11:32;;;;;;;4.20;2.17;;;14.80;89.70;;;;;;5089047;28;20481;-59
2022/07/28 05:13:59;;;;;;;2.53;1.90;;;14.90;88.30;;;;;;5089518;28;20947;-59
2022/07/28 05:16:26;;;;;;;4.50;2.50;;;14.90;87.40;;;;;;5089383;28;20462;-58
2022/07/28 05:18:55;;;;;;;5.83;2.40;;;14.80;86.80;;;;;;5069823;28;20439;-58
2022/07/28 05:21:23;;;;;;;6.07;2.40;;;14.90;86.10;;;;;;5056420;28;20881;-57
2022/07/28 05:23:50;;;;;;;3.33;2.00;;;14.90;85.50;;;;;;5072167;28;20946;-58
2022/07/28 05:26:17;;;;;;;6.57;2.63;;;14.90;85.10;;;;;;5076154;28;20501;-58
2022/07/28 05:28:45;;;;;;;6.40;2.73;;;15.00;84.70;;;;;;5075921;28;20515;-58
2022/07/28 05:31:12;;;;;;;3.83;2.20;;;15.00;84.00;;;;;;5075838;28;20442;-58
2022/07/28 05:33:39;;;;;;;3.85;1.63;;;15.10;83.40;;;;;;5075375;28;20840;-59
2022/07/28 05:36:11;;;;;;;4.37;2.27;;;15.20;81.60;;;;;;5075748;28;21001;-58
2022/07/28 05:38:38;;;;;;;3.73;2.30;;;15.30;80.20;;;;;;5075734;28;20473;-59
2022/07/28 05:41:06;;;;;;;6.60;2.20;;;15.40;79.70;;;;;;5075498;28;20451;-58
2022/07/28 05:43:36;;;;;;;5.27;2.40;;;15.50;78.60;;;;;;5076412;28;20627;-58
2022/07/28 05:46:04;;;;;;;6.50;2.47;;;15.50;77.70;;;;;;5075790;28;20459;-59
2022/07/28 05:48:32;;;;;;;3.10;1.77;;;15.60;77.00;;;;;;5075990;28;20998;-58
2022/07/28 05:50:59;;;;;;;4.47;2.23;;;15.50;76.60;;;;;;5075164;28;20443;-60
2022/07/28 05:53:27;;;;;;;4.43;2.93;;;15.50;76.70;;;;;;5076698;28;20542;-58
2022/07/28 05:55:55;;;;;;;4.83;2.30;;;15.50;76.70;;;;;;5074653;28;20471;-59
2022/07/28 05:58:23;;;;;;;3.17;1.63;;;15.60;76.20;;;;;;5075326;28;20447;-59
2022/07/28 06:00:50;;;;;;;3.47;2.00;;;15.70;75.60;;;;;;5076607;28;20451;-60
2022/07/28 06:03:18;;;;;;;5.63;2.03;;;15.80;74.80;;;;;;5075181;28;20543;-57
2022/07/28 06:05:45;;;;;;;6.13;1.80;;;15.70;74.20;;;;;;5075257;28;20467;-59
2022/07/28 06:08:12;;;;;;;5.10;2.53;;;15.70;74.10;;;;;;5074328;28;20550;-58
2022/07/28 06:11:00;;;;;;;4.13;1.97;;;15.60;74.10;;;;;;5074665;28;20849;-58
2022/07/28 06:13:28;;;;;;;3.33;2.13;;;15.60;74.30;;;;;;5074573;28;20431;-59
2022/07/28 06:15:57;;;;;;;3.20;1.70;;;15.70;73.90;;;;;;5093884;28;20827;-59
2022/07/28 06:18:24;;;;;;;8.60;2.53;;;15.70;73.60;;;;;;5075893;28;20542;-59
2022/07/28 06:20:52;;;;;;;4.13;1.43;;;15.70;74.00;;;;;;5074489;28;20550;-58
2022/07/28 06:23:22;;;;;;;5.03;1.90;;;15.70;73.80;;;;;;5074402;28;20450;-58
2022/07/28 06:25:51;;;;;;;3.43;2.10;;;15.80;73.30;;;;;;5074839;28;20550;-59
2022/07/28 06:28:18;;;;;;;4.17;1.90;;;15.80;73.30;;;;;;5074412;28;20443;-59
2022/07/28 06:30:46;;;;;;;4.77;2.37;;;15.80;73.20;;;;;;5074655;28;20443;-59
2022/07/28 06:33:14;;;;;;;4.40;2.00;;;15.80;73.00;;;;;;5073683;28;20459;-58
2022/07/28 06:35:41;;;;;;;3.73;2.03;;;15.90;72.70;;;;;;5086423;28;20503;-58
2022/07/28 06:38:09;;;;;;;2.97;2.37;;;16.00;72.50;;;;;;5089194;28;20490;-59
2022/07/28 06:40:36;;;;;;;5.93;2.07;;;16.20;72.10;;;;;;5075193;28;20445;-60
2022/07/28 06:43:05;;;;;;;4.23;1.83;;;16.30;71.50;;;;;;5074648;28;20525;-60
2022/07/28 06:45:32;;;;;;;4.53;2.07;;;16.40;70.90;;;;;;5073712;28;20465;-59
2022/07/28 06:47:59;;;;;;;3.57;1.93;;;16.40;70.10;;;;;;5073925;28;20443;-59
2022/07/28 06:50:27;;;;;;;4.87;1.57;;;16.50;69.60;;;;;;5073748;28;20482;-59
2022/07/28 06:52:55;;;;;;;2.50;1.27;;;16.70;69.10;;;;;;5074102;28;20526;-58
2022/07/28 06:55:22;;;;;;;6.87;1.70;;;16.80;67.90;;;;;;5073997;28;20542;-60
2022/07/28 06:57:49;;;;;;;6.50;2.00;;;16.70;67.20;;;;;;5073783;28;20558;-59
2022/07/28 07:00:18;;;;;;;9.63;2.00;;;16.60;67.00;;;;;;5082527;28;20443;-59
2022/07/28 07:02:45;;;;;;;2.27;1.40;;;16.60;67.10;;;;;;5073813;28;20526;-59
2022/07/28 07:05:13;;;;;;;4.50;1.93;;;16.50;67.20;;;;;;5088057;28;20536;-60
2022/07/28 07:07:40;;;;;;;2.80;1.67;;;16.60;67.50;;;;;;5082889;28;20554;-59
2022/07/28 07:10:08;;;;;;;3.37;1.37;;;16.70;67.40;;;;;;5075220;28;20546;-59
2022/07/28 07:12:36;;;;;;;4.67;1.50;;;16.80;67.20;;;;;;5073078;28;20442;-59
2022/07/28 07:15:04;;;;;;;2.80;1.20;;;16.80;67.00;;;;;;5078640;28;20534;-59
2022/07/28 07:17:32;;;;;;;6.73;1.63;;;16.90;66.80;;;;;;5073590;28;20546;-58
2022/07/28 07:20:00;;;;;;;3.00;1.43;;;17.00;66.90;;;;;;5073786;28;20558;-59
2022/07/28 07:22:27;;;;;;;5.00;1.70;;;17.00;66.50;;;;;;5084744;28;20458;-59
2022/07/28 07:24:55;;;;;;;4.83;1.80;;;17.20;66.40;;;;;;5073604;28;20538;-59
2022/07/28 07:27:22;;;;;;;1.87;1.20;;;17.20;66.60;;;;;;5072952;28;21014;-59
2022/07/28 07:29:49;;;;;;;4.77;1.60;;;17.20;65.70;;;;;;5073127;28;20844;-59
2022/07/28 07:32:16;;;;;;;4.97;1.70;;;17.30;65.40;;;;;;5073421;28;20454;-60
2022/07/28 07:34:45;;;;;;;4.03;1.30;;;17.30;65.20;;;;;;5074622;28;20530;-59
2022/07/28 07:37:13;;;;;;;2.30;1.13;;;17.40;64.60;;;;;;5093390;28;20550;-59
2022/07/28 07:39:41;;;;;;;3.33;1.30;;;17.50;63.40;;;;;;5093352;28;20957;-60
2022/07/28 07:42:08;;;;;;;6.97;2.13;;;17.60;62.10;;;;;;5074777;28;20443;-59
2022/07/28 07:44:36;;;;;;;6.23;1.57;;;17.70;60.20;;;;;;5075690;28;21065;-60
2022/07/28 07:47:03;;;;;;;4.53;1.53;;;17.80;58.70;;;;;;5087968;28;20557;-60
2022/07/28 07:49:30;;;;;;;6.20;2.63;;;17.90;58.30;;;;;;5093355;28;20535;-59
2022/07/28 07:51:59;;;;;;;10.33;1.87;;;18.00;58.10;;;;;;5093120;28;20448;-59
2022/07/28 07:54:26;;;;;;;7.90;2.20;;;18.10;57.90;;;;;;5080848;28;20469;-59
2022/07/28 07:56:54;;;;;;;6.20;2.37;;;18.20;57.30;;;;;;5072605;28;20546;-59
2022/07/28 07:59:21;;;;;;;7.27;1.63;;;18.30;56.90;;;;;;5086807;28;20810;-60
2022/07/28 08:01:53;;;;;;;3.43;1.93;;;18.30;56.30;;;;;;5092826;28;20524;-59
2022/07/28 08:04:20;;;;;;;8.10;1.87;;;18.40;56.20;;;;;;5076100;28;20435;-60
2022/07/28 08:06:48;;;;;;;5.57;1.80;;;18.40;55.60;;;;;;5073663;28;20493;-58
2022/07/28 08:09:17;;;;;;;5.37;1.80;;;18.60;55.30;;;;;;5072867;28;20479;-60
2022/07/28 08:11:45;;;;;;;4.43;1.40;;;18.70;54.70;;;;;;5072017;28;20440;-60
2022/07/28 08:14:12;;;;;;;1.57;1.03;;;18.80;54.10;;;;;;5080209;28;20574;-60
2022/07/28 08:16:40;;;;;;;5.67;1.80;;;18.90;53.90;;;;;;5093230;28;20459;-59
2022/07/28 08:19:07;;;;;;;3.70;1.30;;;18.90;53.30;;;;;;5093174;28;20450;-58
2022/07/28 08:21:34;;;;;;;2.00;1.13;;;19.00;52.70;;;;;;5093169;28;20451;-59
2022/07/28 08:24:02;;;;;;;3.47;1.50;;;19.00;52.30;;;;;;5093770;28;20541;-60
2022/07/28 08:26:31;;;;;;;2.00;1.30;;;19.00;52.10;;;;;;5093063;28;20509;-59
2022/07/28 08:28:58;;;;;;;4.00;1.80;;;19.00;51.90;;;;;;5104705;28;20439;-59
2022/07/28 08:31:25;;;;;;;2.03;1.20;;;19.00;51.80;;;;;;5084922;28;20478;-59
2022/07/28 08:33:54;;;;;;;5.90;1.20;;;19.10;51.80;;;;;;5077915;28;20553;-60
2022/07/28 08:36:21;;;;;;;5.33;1.63;;;19.20;51.30;;;;;;5078633;28;20901;-59
2022/07/28 08:38:48;;;;;;;4.20;1.03;;;19.30;51.00;;;;;;5093656;28;20485;-60
2022/07/28 08:41:20;;;;;;;3.77;1.47;;;19.20;50.70;;;;;;5093931;28;20525;-58
2022/07/28 08:43:52;;;;;;;6.83;1.53;;;19.20;51.50;;;;;;5093633;28;20435;-59
2022/07/28 08:46:20;;;;;;;2.67;1.00;;;19.20;50.50;;;;;;5080876;28;20554;-57
2022/07/28 08:48:48;;;;;;;7.70;1.17;;;19.30;50.40;;;;;;5080142;28;20463;-58
2022/07/28 08:51:16;;;;;;;3.30;1.10;;;19.40;49.90;;;;;;5073608;28;20479;-60
2022/07/28 08:53:43;;;;;;;2.63;1.10;;;19.40;49.50;;;;;;5087717;28;20538;-60
2022/07/28 08:56:15;;;;;;;1.80;1.10;;;19.50;49.40;;;;;;5096403;28;20496;-59
2022/07/28 08:58:43;;;;;;;2.50;1.00;;;19.50;49.10;;;;;;5090889;28;20849;-60
2022/07/28 09:01:12;;;;;;;3.30;1.43;;;19.60;49.20;;;;;;5097913;28;20564;-60
2022/07/28 09:03:39;;;;;;;4.60;2.07;;;19.70;49.00;;;;;;5094870;28;20542;-59
2022/07/28 09:06:08;;;;;;;2.10;1.00;;;19.70;48.50;;;;;;5085842;28;20550;-59
2022/07/28 09:08:35;;;;;;;2.00;0.80;;;19.70;48.40;;;;;;5092507;28;20517;-59
2022/07/28 09:11:05;;;;;;;3.33;0.90;;;19.80;48.30;;;;;;5103509;28;20553;-60
2022/07/28 09:13:32;;;;;;;4.07;1.27;;;19.80;48.00;;;;;;5083412;28;20451;-63
2022/07/28 09:15:59;;;;;;;1.70;1.10;;;19.90;47.80;;;;;;5084908;28;20495;-60
2022/07/28 09:18:28;;;;;;;4.30;1.40;;;20.10;47.30;;;;;;5095194;28;20457;-59
2022/07/28 09:20:55;;;;;;;3.30;1.40;;;20.20;47.10;;;;;;5085703;28;20507;-58
2022/07/28 09:23:22;;;;;;;1.70;1.20;;;20.20;47.40;;;;;;5085426;28;20474;-59
2022/07/28 09:25:50;;;;;;;3.70;1.27;;;20.30;47.00;;;;;;5083892;28;20497;-59
2022/07/28 09:28:18;;;;;;;4.40;1.13;;;20.40;46.80;;;;;;5096758;28;20542;-58
2022/07/28 09:30:48;;;;;;;2.10;1.10;;;20.50;46.50;;;;;;5100878;28;20474;-58
2022/07/28 09:33:21;;;;;;;3.40;1.10;;;20.70;46.40;;;;;;5098687;28;20583;-59
2022/07/28 09:35:52;;;;;;;3.10;1.20;;;20.80;46.00;;;;;;5096725;28;20472;-59
2022/07/28 09:38:20;;;;;;;4.73;1.27;;;20.80;45.50;;;;;;5096006;28;20429;-59
2022/07/28 09:40:58;;;;;;;2.90;1.20;;;20.80;45.50;;;;;;5095875;28;20466;-58
2022/07/28 09:43:36;;;;;;;2.90;1.17;;;21.00;45.40;;;;;;5095708;28;20446;-60
2022/07/28 09:46:09;;;;;;;7.40;1.63;;;21.20;45.10;;;;;;5096962;28;20549;-57
2022/07/28 09:48:49;;;;;;;7.50;1.50;;;21.20;44.60;;;;;;5095718;28;20518;-58
2022/07/28 09:51:20;;;;;;;3.50;1.10;;;21.20;44.50;;;;;;5095339;28;20560;-59
2022/07/28 09:53:47;;;;;;;4.57;1.47;;;21.30;44.40;;;;;;5096452;28;20504;-59
2022/07/28 09:56:14;;;;;;;6.13;1.87;;;21.30;44.30;;;;;;5096540;28;20465;-59
2022/07/28 09:58:52;;;;;;;3.00;1.00;;;21.30;44.20;;;;;;5103682;28;20535;-59
2022/07/28 10:01:20;;;;;;;6.23;1.50;;;21.50;44.20;;;;;;5099746;28;20861;-59
2022/07/28 10:03:51;;;;;;;5.17;1.63;;;21.50;43.90;;;;;;5101143;28;20454;-59
2022/07/28 10:06:27;;;;;;;2.90;1.50;;;21.60;43.90;;;;;;5098725;28;20843;-60
2022/07/28 10:08:56;;;;;;;3.50;1.53;;;21.80;43.50;;;;;;5095660;28;20462;-59
2022/07/28 10:11:26;;;;;;;3.13;1.30;;;21.80;43.40;;;;;;5095190;28;20575;-59
2022/07/28 10:13:56;;;;;;;2.50;1.40;;;21.80;43.40;;;;;;5095215;28;20858;-59
2022/07/28 10:16:25;;;;;;;2.53;1.07;;;21.80;43.30;;;;;;5095808;28;20470;-59
2022/07/28 10:18:52;;;;;;;2.67;1.33;;;21.80;43.40;;;;;;5095202;28;20566;-59
2022/07/28 10:21:22;;;;;;;3.60;2.00;;;22.00;43.40;;;;;;5095537;28;20523;-60
2022/07/28 10:23:52;;;;;;;5.23;1.93;;;22.20;43.30;;;;;;5097442;28;20509;-59
2022/07/28 10:26:25;;;;;;;9.10;1.53;;;22.50;42.90;;;;;;5105801;28;20968;-60
2022/07/28 10:28:54;;;;;;;9.90;1.90;;;22.40;42.40;;;;;;5102226;28;20469;-59
2022/07/28 10:31:42;;;;;;;3.30;1.60;;;22.40;42.70;;;;;;5100443;28;20490;-58
2022/07/28 10:34:15;;;;;;;2.70;1.50;;;22.50;42.60;;;;;;5095517;28;20548;-59
2022/07/28 10:36:43;;;;;;;4.73;1.60;;;22.60;42.40;;;;;;5095472;28;20480;-59
2022/07/28 10:39:18;;;;;;;4.77;2.10;;;22.50;42.40;;;;;;5094877;28;20450;-59
2022/07/28 10:41:46;;;;;;;2.73;1.23;;;22.60;42.40;;;;;;5094387;28;20429;-59
2022/07/28 10:44:13;;;;;;;4.93;1.53;;;22.60;41.80;;;;;;5094163;28;20441;-59
2022/07/28 10:46:42;;;;;;;4.17;1.67;;;22.60;41.90;;;;;;5094094;28;20468;-60
2022/07/28 10:49:10;;;;;;;2.93;1.40;;;22.60;41.90;;;;;;5094459;28;20452;-60
2022/07/28 10:51:40;;;;;;;2.70;1.20;;;22.60;41.80;;;;;;5094564;28;20534;-60
2022/07/28 10:54:14;;;;;;;3.10;1.30;;;22.60;41.90;;;;;;5094666;28;20451;-60
2022/07/28 10:56:52;;;;;;;3.00;1.43;;;22.60;41.80;;;;;;5094380;28;20995;-60
2022/07/28 10:59:34;;;;;;;3.67;1.50;;;22.70;41.60;;;;;;5094494;28;20572;-59
2022/07/28 11:02:01;;;;;;;3.33;1.30;;;22.90;41.30;;;;;;5094674;28;20505;-59
2022/07/28 11:04:57;;;;;;;4.90;1.50;;;22.90;41.00;;;;;;5094778;28;20445;-57
2022/07/28 11:07:38;;;;;;;2.47;1.20;;;22.90;40.90;;;;;;5095573;28;20547;-59
2022/07/28 11:10:19;;;;;;;3.70;1.20;;;22.80;41.00;;;;;;5094167;28;20491;-59
2022/07/28 11:12:49;;;;;;;3.03;1.20;;;22.70;41.10;;;;;;5094059;28;20462;-59
2022/07/28 11:15:33;;;;;;;7.80;1.53;;;22.70;41.10;;;;;;5093895;28;20477;-59
2022/07/28 11:18:03;;;;;;;2.43;1.40;;;22.80;40.90;;;;;;5093449;28;20446;-59
2022/07/28 11:21:08;;;;;;;1.90;1.20;;;22.70;40.80;;;;;;5094201;28;20498;-59
2022/07/28 11:23:45;;;;;;;3.47;1.37;;;22.80;40.90;;;;;;5093508;28;20441;-58
2022/07/28 11:26:36;;;;;;;10.60;1.47;;;22.80;40.80;;;;;;5093495;28;20477;-59
2022/07/28 11:29:21;;;;;;;3.10;1.30;;;22.80;40.70;;;;;;5093814;28;20742;-59
2022/07/28 11:32:02;;;;;;;4.90;1.50;;;22.90;40.70;;;;;;5093542;28;20464;-60
2022/07/28 11:35:08;;;;;;;1.73;1.50;;;23.10;40.40;;;;;;5093757;28;20440;-60
2022/07/28 11:38:07;;;;;;;5.63;1.30;;;23.30;40.00;;;;;;5093622;28;20518;-59
2022/07/28 11:40:37;;;;;;;3.63;1.10;;;23.40;39.40;;;;;;5093530;28;20797;-60
2022/07/28 11:43:33;;;;;;;2.00;1.20;;;23.50;39.00;;;;;;5093796;28;20444;-59
2022/07/28 11:46:33;;;;;;;3.07;1.13;;;23.50;38.90;;;;;;5093216;28;20805;-59
2022/07/28 11:49:23;;;;;;;2.27;1.33;;;23.40;39.00;;;;;;5093581;28;20422;-59
2022/07/28 11:52:10;;;;;;;2.50;1.40;;;23.50;39.10;;;;;;5093422;28;20575;-59
2022/07/28 11:54:38;;;;;;;3.10;1.20;;;23.40;38.80;;;;;;5093292;28;20456;-60
2022/07/28 11:57:08;;;;;;;3.90;1.37;;;23.50;38.90;;;;;;5093335;28;20466;-60
2022/07/28 11:59:47;;;;;;;3.40;1.37;;;23.70;38.60;;;;;;5093013;28;20453;-59
2022/07/28 12:02:21;;;;;;;2.80;1.27;;;24.10;38.70;;;;;;5093684;28;20546;-58
2022/07/28 12:05:08;;;;;;;3.10;1.03;;;24.60;37.20;;;;;;5093403;28;20431;-59
2022/07/28 12:07:41;;;;;;;1.67;0.87;;;25.10;36.40;;;;;;5093573;28;20527;-59
2022/07/28 12:10:30;;;;;;;2.53;0.93;;;25.70;35.60;;;;;;5093214;28;20514;-60
2022/07/28 12:12:59;;;;;;;6.73;1.57;;;26.30;34.70;;;;;;5093514;28;20433;-59
2022/07/28 12:15:27;;;;;;;3.60;1.30;;;26.70;34.10;;;;;;5093482;28;20614;-60
2022/07/28 12:17:57;;;;;;;3.40;1.40;;;27.00;33.50;;;;;;5092965;28;20540;-60
2022/07/28 12:20:30;;;;;;;3.40;1.40;;;27.20;33.10;;;;;;5093116;28;20429;-60
2022/07/28 12:23:03;;;;;;;2.93;1.17;;;27.20;32.70;;;;;;5093756;28;20439;-60
2022/07/28 12:25:30;;;;;;;2.87;1.07;;;27.20;32.60;;;;;;5088675;28;20447;-60
2022/07/28 12:27:58;;;;;;;7.70;1.87;;;27.20;32.50;;;;;;5076923;28;20544;-57
2022/07/28 12:30:27;;;;;;;4.47;1.33;;;27.30;32.40;;;;;;5074647;28;20453;-57
2022/07/28 12:32:56;;;;;;;2.80;1.40;;;27.30;32.10;;;;;;5076798;28;20539;-58
2022/07/28 12:35:24;;;;;;;8.50;1.83;;;27.20;32.20;;;;;;5079713;28;20879;-61
2022/07/28 12:37:52;;;;;;;1.97;1.20;;;27.00;32.40;;;;;;5097284;28;20459;-58
2022/07/28 12:40:20;;;;;;;3.90;1.40;;;26.90;32.70;;;;;;5096931;28;20595;-59
2022/07/28 12:42:53;;;;;;;2.03;1.07;;;26.70;32.80;;;;;;5096352;28;20452;-59
2022/07/28 12:45:21;;;;;;;3.47;1.40;;;26.40;32.80;;;;;;5095800;28;20917;-60
2022/07/28 12:47:49;;;;;;;4.23;1.37;;;26.00;33.40;;;;;;5097114;28;20560;-60
2022/07/28 12:50:19;;;;;;;4.53;1.47;;;25.70;33.90;;;;;;5079061;28;20528;-60
2022/07/28 12:53:02;;;;;;;2.03;1.10;;;25.30;34.40;;;;;;5078116;28;20498;-60
2022/07/28 12:55:31;;;;;;;3.30;1.20;;;25.00;34.60;;;;;;5101952;28;20527;-60
2022/07/28 12:57:58;;;;;;;3.97;1.60;;;24.80;35.20;;;;;;5083940;28;20443;-59
2022/07/28 13:00:29;;;;;;;2.70;1.50;;;24.60;35.60;;;;;;5076600;28;20526;-59
2022/07/28 13:02:58;;;;;;;2.60;1.43;;;24.40;35.80;;;;;;5082517;28;20441;-58
2022/07/28 13:05:32;;;;;;;2.80;1.40;;;24.40;35.90;;;;;;5091517;28;20451;-60
2022/07/28 13:08:01;;;;;;;2.47;1.50;;;24.40;35.90;;;;;;5076987;28;20470;-60